Weather at Anderstorp Airport

Public forecast

Using degrees Celsius for public forecast. Weather courtesy of forecast.io.

Closest aviation weather report (METAR) to Anderstorp Airport

Report is more than 6 hours old.

Closest report is Jönköping Airport, 33.3 nm (61.6 km) NNE.

2022/11/14 15:20 (retrieved 2 years ago)

ESGJ 141520Z 11003KT 9999 OVC010 08/07 Q1021

Closest aviation forecast (TAF) to Anderstorp Airport

Forecast is more than 12 hours old.

Closest forecast is Gothenburg-Landvetter Airport, 48.9 nm (90.5 km) WNW.

2023/02/22 21:21 (retrieved 1 year ago)

TAF TAF ESGG 222030Z 2221/2321 15010KT 9999 BKN025 PROB40 2300/2303 2000 SNRA BKN008 BECMG 2303/2305 4000 -RADZ BR OVC006 TEMPO 2305/2321 1200 OVC003 BECMG 2314/2316 VRB03KT